sensor_id;sensor_type;location;lat;lon;timestamp;P1;durP1;ratioP1;P2;durP2;ratioP2
63316;SDS011;49822;41.468;13.560;2023-11-21T00:02:25;24.75;;;12.57;;
63316;SDS011;49822;41.468;13.560;2023-11-21T00:04:52;27.40;;;14.65;;
63316;SDS011;49822;41.468;13.560;2023-11-21T00:07:18;26.83;;;13.98;;
63316;SDS011;49822;41.468;13.560;2023-11-21T00:09:46;35.42;;;17.48;;
63316;SDS011;49822;41.468;13.560;2023-11-21T00:12:13;28.48;;;14.15;;
63316;SDS011;49822;41.468;13.560;2023-11-21T00:14:40;23.13;;;11.85;;
63316;SDS011;49822;41.468;13.560;2023-11-21T00:17:06;33.53;;;16.63;;
63316;SDS011;49822;41.468;13.560;2023-11-21T00:19:32;20.42;;;10.23;;
63316;SDS011;49822;41.468;13.560;2023-11-21T00:22:00;24.20;;;11.60;;
63316;SDS011;49822;41.468;13.560;2023-11-21T00:24:26;26.75;;;14.38;;
63316;SDS011;49822;41.468;13.560;2023-11-21T00:26:52;25.42;;;13.07;;
63316;SDS011;49822;41.468;13.560;2023-11-21T00:29:20;17.75;;;10.45;;
63316;SDS011;49822;41.468;13.560;2023-11-21T00:31:46;26.65;;;14.20;;
63316;SDS011;49822;41.468;13.560;2023-11-21T00:34:12;18.80;;;9.05;;
63316;SDS011;49822;41.468;13.560;2023-11-21T00:36:38;23.05;;;13.15;;
63316;SDS011;49822;41.468;13.560;2023-11-21T00:39:04;22.30;;;12.93;;
63316;SDS011;49822;41.468;13.560;2023-11-21T00:41:31;24.88;;;12.77;;
63316;SDS011;49822;41.468;13.560;2023-11-21T00:43:58;23.50;;;12.75;;
63316;SDS011;49822;41.468;13.560;2023-11-21T00:46:25;26.02;;;13.00;;
63316;SDS011;49822;41.468;13.560;2023-11-21T00:48:53;24.52;;;12.38;;
63316;SDS011;49822;41.468;13.560;2023-11-21T00:51:20;23.35;;;14.13;;
63316;SDS011;49822;41.468;13.560;2023-11-21T00:53:46;27.83;;;13.23;;
63316;SDS011;49822;41.468;13.560;2023-11-21T00:56:14;24.70;;;12.60;;
63316;SDS011;49822;41.468;13.560;2023-11-21T00:58:41;28.65;;;13.20;;
63316;SDS011;49822;41.468;13.560;2023-11-21T01:01:15;20.45;;;11.60;;
63316;SDS011;49822;41.468;13.560;2023-11-21T01:03:42;22.27;;;11.55;;
63316;SDS011;49822;41.468;13.560;2023-11-21T01:06:08;22.15;;;11.80;;
63316;SDS011;49822;41.468;13.560;2023-11-21T01:08:34;25.65;;;12.32;;
63316;SDS011;49822;41.468;13.560;2023-11-21T01:11:02;20.73;;;11.75;;
63316;SDS011;49822;41.468;13.560;2023-11-21T01:13:28;22.95;;;13.55;;
63316;SDS011;49822;41.468;13.560;2023-11-21T01:15:55;25.17;;;13.45;;
63316;SDS011;49822;41.468;13.560;2023-11-21T01:18:23;24.77;;;13.32;;
63316;SDS011;49822;41.468;13.560;2023-11-21T01:20:51;23.70;;;12.27;;
63316;SDS011;49822;41.468;13.560;2023-11-21T01:23:19;24.13;;;12.70;;
63316;SDS011;49822;41.468;13.560;2023-11-21T01:25:45;27.90;;;15.32;;
63316;SDS011;49822;41.468;13.560;2023-11-21T01:28:11;30.58;;;15.30;;
63316;SDS011;49822;41.468;13.560;2023-11-21T01:30:47;28.63;;;15.40;;
63316;SDS011;49822;41.468;13.560;2023-11-21T01:33:16;27.45;;;13.85;;
63316;SDS011;49822;41.468;13.560;2023-11-21T01:35:43;25.15;;;11.80;;
63316;SDS011;49822;41.468;13.560;2023-11-21T01:38:12;26.52;;;14.10;;
63316;SDS011;49822;41.468;13.560;2023-11-21T01:40:38;26.75;;;15.45;;
63316;SDS011;49822;41.468;13.560;2023-11-21T01:43:04;25.60;;;14.15;;
63316;SDS011;49822;41.468;13.560;2023-11-21T01:45:30;28.05;;;15.23;;
63316;SDS011;49822;41.468;13.560;2023-11-21T01:47:59;27.50;;;16.30;;
63316;SDS011;49822;41.468;13.560;2023-11-21T01:50:26;27.60;;;15.18;;
63316;SDS011;49822;41.468;13.560;2023-11-21T01:52:53;29.77;;;16.63;;
63316;SDS011;49822;41.468;13.560;2023-11-21T01:55:20;35.78;;;18.63;;
63316;SDS011;49822;41.468;13.560;2023-11-21T01:57:46;28.30;;;15.95;;
63316;SDS011;49822;41.468;13.560;2023-11-21T02:00:13;33.65;;;17.80;;
63316;SDS011;49822;41.468;13.560;2023-11-21T02:02:47;28.92;;;16.17;;
63316;SDS011;49822;41.468;13.560;2023-11-21T02:05:14;24.13;;;13.93;;
63316;SDS011;49822;41.468;13.560;2023-11-21T02:07:44;23.83;;;14.75;;
63316;SDS011;49822;41.468;13.560;2023-11-21T02:10:15;30.60;;;15.00;;
63316;SDS011;49822;41.468;13.560;2023-11-21T02:12:42;29.42;;;14.65;;
63316;SDS011;49822;41.468;13.560;2023-11-21T02:15:09;25.30;;;13.35;;
63316;SDS011;49822;41.468;13.560;2023-11-21T02:17:43;23.77;;;13.35;;
63316;SDS011;49822;41.468;13.560;2023-11-21T02:20:13;23.75;;;12.80;;
63316;SDS011;49822;41.468;13.560;2023-11-21T02:22:44;22.80;;;12.38;;
63316;SDS011;49822;41.468;13.560;2023-11-21T02:25:27;22.67;;;12.48;;
63316;SDS011;49822;41.468;13.560;2023-11-21T02:27:55;26.45;;;12.30;;
63316;SDS011;49822;41.468;13.560;2023-11-21T02:30:22;23.10;;;11.77;;
63316;SDS011;49822;41.468;13.560;2023-11-21T02:32:52;22.95;;;12.48;;
63316;SDS011;49822;41.468;13.560;2023-11-21T02:35:18;22.70;;;12.77;;
63316;SDS011;49822;41.468;13.560;2023-11-21T02:37:48;23.83;;;13.05;;
63316;SDS011;49822;41.468;13.560;2023-11-21T02:40:15;24.00;;;12.43;;
63316;SDS011;49822;41.468;13.560;2023-11-21T02:42:46;22.42;;;11.70;;
63316;SDS011;49822;41.468;13.560;2023-11-21T02:45:24;20.85;;;11.85;;
63316;SDS011;49822;41.468;13.560;2023-11-21T02:47:51;20.02;;;11.02;;
63316;SDS011;49822;41.468;13.560;2023-11-21T02:50:22;19.88;;;10.38;;
63316;SDS011;49822;41.468;13.560;2023-11-21T02:52:48;18.55;;;9.15;;
63316;SDS011;49822;41.468;13.560;2023-11-21T02:55:14;19.17;;;9.43;;
63316;SDS011;49822;41.468;13.560;2023-11-21T02:57:40;18.65;;;9.77;;
63316;SDS011;49822;41.468;13.560;2023-11-21T03:00:07;21.00;;;10.50;;
63316;SDS011;49822;41.468;13.560;2023-11-21T03:02:35;20.42;;;9.60;;
63316;SDS011;49822;41.468;13.560;2023-11-21T03:05:05;21.25;;;10.07;;
63316;SDS011;49822;41.468;13.560;2023-11-21T03:07:32;19.63;;;8.50;;
63316;SDS011;49822;41.468;13.560;2023-11-21T03:09:58;16.10;;;8.63;;
63316;SDS011;49822;41.468;13.560;2023-11-21T03:12:24;13.45;;;7.72;;
63316;SDS011;49822;41.468;13.560;2023-11-21T03:14:51;13.70;;;7.32;;
63316;SDS011;49822;41.468;13.560;2023-11-21T03:17:17;14.63;;;6.40;;
63316;SDS011;49822;41.468;13.560;2023-11-21T03:19:43;17.73;;;7.53;;
63316;SDS011;49822;41.468;13.560;2023-11-21T03:22:09;14.35;;;7.85;;
63316;SDS011;49822;41.468;13.560;2023-11-21T03:24:37;14.68;;;7.55;;
63316;SDS011;49822;41.468;13.560;2023-11-21T03:27:04;18.33;;;8.40;;
63316;SDS011;49822;41.468;13.560;2023-11-21T03:29:30;27.20;;;8.48;;
63316;SDS011;49822;41.468;13.560;2023-11-21T03:31:56;11.80;;;7.25;;
63316;SDS011;49822;41.468;13.560;2023-11-21T03:34:24;13.50;;;7.05;;
63316;SDS011;49822;41.468;13.560;2023-11-21T03:36:54;24.13;;;8.25;;
63316;SDS011;49822;41.468;13.560;2023-11-21T03:39:21;14.98;;;7.90;;
63316;SDS011;49822;41.468;13.560;2023-11-21T03:41:48;19.20;;;8.98;;
63316;SDS011;49822;41.468;13.560;2023-11-21T03:44:15;17.65;;;6.75;;
63316;SDS011;49822;41.468;13.560;2023-11-21T03:46:41;11.90;;;5.72;;
63316;SDS011;49822;41.468;13.560;2023-11-21T03:49:10;12.98;;;6.53;;
63316;SDS011;49822;41.468;13.560;2023-11-21T03:51:36;10.95;;;5.55;;
63316;SDS011;49822;41.468;13.560;2023-11-21T03:54:04;15.45;;;4.97;;
63316;SDS011;49822;41.468;13.560;2023-11-21T03:56:30;10.60;;;5.97;;
63316;SDS011;49822;41.468;13.560;2023-11-21T03:58:56;11.50;;;5.40;;
63316;SDS011;49822;41.468;13.560;2023-11-21T04:01:22;11.13;;;5.88;;
63316;SDS011;49822;41.468;13.560;2023-11-21T04:03:49;16.73;;;5.72;;
63316;SDS011;49822;41.468;13.560;2023-11-21T04:06:16;12.73;;;5.20;;
63316;SDS011;49822;41.468;13.560;2023-11-21T04:08:43;12.05;;;6.50;;
63316;SDS011;49822;41.468;13.560;2023-11-21T04:11:11;25.65;;;7.20;;
63316;SDS011;49822;41.468;13.560;2023-11-21T04:13:38;10.73;;;6.97;;
63316;SDS011;49822;41.468;13.560;2023-11-21T04:16:08;19.52;;;5.72;;
63316;SDS011;49822;41.468;13.560;2023-11-21T04:18:36;56.53;;;5.22;;
63316;SDS011;49822;41.468;13.560;2023-11-21T04:21:06;75.80;;;6.93;;
63316;SDS011;49822;41.468;13.560;2023-11-21T04:23:33;77.18;;;7.60;;
63316;SDS011;49822;41.468;13.560;2023-11-21T04:26:00;20.73;;;6.93;;
63316;SDS011;49822;41.468;13.560;2023-11-21T04:28:27;15.98;;;6.72;;
63316;SDS011;49822;41.468;13.560;2023-11-21T04:30:54;15.38;;;6.60;;
63316;SDS011;49822;41.468;13.560;2023-11-21T04:33:21;27.75;;;5.93;;
63316;SDS011;49822;41.468;13.560;2023-11-21T04:35:47;21.23;;;6.20;;
63316;SDS011;49822;41.468;13.560;2023-11-21T04:38:14;15.68;;;6.15;;
63316;SDS011;49822;41.468;13.560;2023-11-21T04:40:40;60.25;;;6.93;;
63316;SDS011;49822;41.468;13.560;2023-11-21T04:43:06;16.75;;;6.18;;
63316;SDS011;49822;41.468;13.560;2023-11-21T04:45:33;12.93;;;6.00;;
63316;SDS011;49822;41.468;13.560;2023-11-21T04:48:00;14.70;;;7.18;;
63316;SDS011;49822;41.468;13.560;2023-11-21T04:50:26;12.68;;;6.10;;
63316;SDS011;49822;41.468;13.560;2023-11-21T04:52:55;11.52;;;5.90;;
63316;SDS011;49822;41.468;13.560;2023-11-21T04:55:21;14.90;;;7.20;;
63316;SDS011;49822;41.468;13.560;2023-11-21T04:57:47;14.13;;;8.65;;
63316;SDS011;49822;41.468;13.560;2023-11-21T05:00:13;11.75;;;5.10;;
63316;SDS011;49822;41.468;13.560;2023-11-21T05:02:41;12.98;;;4.90;;
63316;SDS011;49822;41.468;13.560;2023-11-21T05:05:07;9.25;;;5.13;;
63316;SDS011;49822;41.468;13.560;2023-11-21T05:07:35;10.40;;;4.88;;
63316;SDS011;49822;41.468;13.560;2023-11-21T05:10:03;10.48;;;5.38;;
63316;SDS011;49822;41.468;13.560;2023-11-21T05:12:35;9.32;;;4.97;;
63316;SDS011;49822;41.468;13.560;2023-11-21T05:15:05;9.68;;;4.40;;
63316;SDS011;49822;41.468;13.560;2023-11-21T05:17:38;11.80;;;6.20;;
63316;SDS011;49822;41.468;13.560;2023-11-21T05:20:07;12.55;;;4.72;;
63316;SDS011;49822;41.468;13.560;2023-11-21T05:22:36;11.93;;;5.10;;
63316;SDS011;49822;41.468;13.560;2023-11-21T05:25:02;12.55;;;5.93;;
63316;SDS011;49822;41.468;13.560;2023-11-21T05:27:31;12.15;;;5.85;;
63316;SDS011;49822;41.468;13.560;2023-11-21T05:29:57;10.65;;;5.20;;
63316;SDS011;49822;41.468;13.560;2023-11-21T05:32:24;14.13;;;5.10;;
63316;SDS011;49822;41.468;13.560;2023-11-21T05:34:51;15.05;;;4.65;;
63316;SDS011;49822;41.468;13.560;2023-11-21T05:37:18;9.35;;;4.85;;
63316;SDS011;49822;41.468;13.560;2023-11-21T05:39:45;12.63;;;5.80;;
63316;SDS011;49822;41.468;13.560;2023-11-21T05:42:12;15.63;;;5.90;;
63316;SDS011;49822;41.468;13.560;2023-11-21T05:44:38;12.93;;;6.45;;
63316;SDS011;49822;41.468;13.560;2023-11-21T05:47:11;9.60;;;5.80;;
63316;SDS011;49822;41.468;13.560;2023-11-21T05:49:39;18.98;;;6.35;;
63316;SDS011;49822;41.468;13.560;2023-11-21T05:52:05;15.95;;;6.32;;
63316;SDS011;49822;41.468;13.560;2023-11-21T05:54:33;11.07;;;5.93;;
63316;SDS011;49822;41.468;13.560;2023-11-21T05:57:00;13.25;;;5.55;;
63316;SDS011;49822;41.468;13.560;2023-11-21T05:59:26;19.52;;;10.02;;
63316;SDS011;49822;41.468;13.560;2023-11-21T06:01:53;29.23;;;12.52;;
63316;SDS011;49822;41.468;13.560;2023-11-21T06:04:19;15.18;;;7.40;;
63316;SDS011;49822;41.468;13.560;2023-11-21T06:06:50;13.15;;;5.97;;
63316;SDS011;49822;41.468;13.560;2023-11-21T06:09:17;114.28;;;48.35;;
63316;SDS011;49822;41.468;13.560;2023-11-21T06:11:44;47.05;;;27.70;;
63316;SDS011;49822;41.468;13.560;2023-11-21T06:14:10;20.05;;;8.48;;
63316;SDS011;49822;41.468;13.560;2023-11-21T06:16:36;19.58;;;9.32;;
63316;SDS011;49822;41.468;13.560;2023-11-21T06:19:02;29.95;;;13.27;;
63316;SDS011;49822;41.468;13.560;2023-11-21T06:21:30;22.27;;;9.98;;
63316;SDS011;49822;41.468;13.560;2023-11-21T06:23:56;32.33;;;15.75;;
63316;SDS011;49822;41.468;13.560;2023-11-21T06:26:23;29.73;;;12.13;;
63316;SDS011;49822;41.468;13.560;2023-11-21T06:28:49;25.23;;;10.98;;
63316;SDS011;49822;41.468;13.560;2023-11-21T06:31:16;27.13;;;9.40;;
63316;SDS011;49822;41.468;13.560;2023-11-21T06:33:43;24.52;;;7.75;;
63316;SDS011;49822;41.468;13.560;2023-11-21T06:36:10;17.98;;;7.30;;
63316;SDS011;49822;41.468;13.560;2023-11-21T06:38:39;17.05;;;8.20;;
63316;SDS011;49822;41.468;13.560;2023-11-21T06:41:05;17.90;;;8.65;;
63316;SDS011;49822;41.468;13.560;2023-11-21T06:43:32;34.25;;;10.60;;
63316;SDS011;49822;41.468;13.560;2023-11-21T06:45:58;15.80;;;8.50;;
63316;SDS011;49822;41.468;13.560;2023-11-21T06:48:25;18.33;;;8.68;;
63316;SDS011;49822;41.468;13.560;2023-11-21T06:50:51;16.17;;;8.18;;
63316;SDS011;49822;41.468;13.560;2023-11-21T06:53:17;13.23;;;8.18;;
63316;SDS011;49822;41.468;13.560;2023-11-21T06:55:44;21.23;;;8.38;;
63316;SDS011;49822;41.468;13.560;2023-11-21T06:58:10;24.48;;;15.57;;
63316;SDS011;49822;41.468;13.560;2023-11-21T07:00:37;19.98;;;12.30;;
63316;SDS011;49822;41.468;13.560;2023-11-21T07:03:06;17.83;;;10.13;;
63316;SDS011;49822;41.468;13.560;2023-11-21T07:05:34;25.80;;;18.48;;
63316;SDS011;49822;41.468;13.560;2023-11-21T07:08:00;33.83;;;17.88;;
63316;SDS011;49822;41.468;13.560;2023-11-21T07:10:29;20.83;;;9.90;;
63316;SDS011;49822;41.468;13.560;2023-11-21T07:12:56;15.40;;;7.55;;
63316;SDS011;49822;41.468;13.560;2023-11-21T07:15:22;12.15;;;7.47;;
63316;SDS011;49822;41.468;13.560;2023-11-21T07:17:49;16.27;;;8.35;;
63316;SDS011;49822;41.468;13.560;2023-11-21T07:20:16;16.92;;;8.02;;
63316;SDS011;49822;41.468;13.560;2023-11-21T07:22:43;13.85;;;7.47;;
63316;SDS011;49822;41.468;13.560;2023-11-21T07:25:09;15.43;;;7.82;;
63316;SDS011;49822;41.468;13.560;2023-11-21T07:27:36;15.60;;;7.55;;
63316;SDS011;49822;41.468;13.560;2023-11-21T07:30:02;12.88;;;7.90;;
63316;SDS011;49822;41.468;13.560;2023-11-21T07:32:31;16.15;;;9.32;;
63316;SDS011;49822;41.468;13.560;2023-11-21T07:34:57;17.75;;;9.25;;
63316;SDS011;49822;41.468;13.560;2023-11-21T07:37:24;17.00;;;8.63;;
63316;SDS011;49822;41.468;13.560;2023-11-21T07:39:54;15.38;;;7.93;;
63316;SDS011;49822;41.468;13.560;2023-11-21T07:42:23;14.95;;;8.27;;
63316;SDS011;49822;41.468;13.560;2023-11-21T07:44:51;12.63;;;7.53;;
63316;SDS011;49822;41.468;13.560;2023-11-21T07:47:18;13.05;;;7.75;;
63316;SDS011;49822;41.468;13.560;2023-11-21T07:49:44;11.43;;;6.03;;
63316;SDS011;49822;41.468;13.560;2023-11-21T07:52:12;20.13;;;8.18;;
63316;SDS011;49822;41.468;13.560;2023-11-21T07:54:41;24.10;;;7.38;;
63316;SDS011;49822;41.468;13.560;2023-11-21T07:57:07;14.73;;;7.85;;
63316;SDS011;49822;41.468;13.560;2023-11-21T07:59:33;18.08;;;7.65;;
63316;SDS011;49822;41.468;13.560;2023-11-21T08:01:59;11.40;;;6.78;;
63316;SDS011;49822;41.468;13.560;2023-11-21T08:04:25;18.70;;;10.13;;
63316;SDS011;49822;41.468;13.560;2023-11-21T08:06:51;15.20;;;9.05;;
63316;SDS011;49822;41.468;13.560;2023-11-21T08:09:18;23.80;;;10.52;;
63316;SDS011;49822;41.468;13.560;2023-11-21T08:11:44;18.48;;;10.05;;
63316;SDS011;49822;41.468;13.560;2023-11-21T08:14:12;14.18;;;8.45;;
63316;SDS011;49822;41.468;13.560;2023-11-21T08:16:38;16.70;;;8.82;;
63316;SDS011;49822;41.468;13.560;2023-11-21T08:19:04;17.45;;;8.55;;
63316;SDS011;49822;41.468;13.560;2023-11-21T08:21:31;19.38;;;9.93;;
63316;SDS011;49822;41.468;13.560;2023-11-21T08:23:58;14.60;;;8.77;;
63316;SDS011;49822;41.468;13.560;2023-11-21T08:26:25;18.50;;;7.63;;
63316;SDS011;49822;41.468;13.560;2023-11-21T08:28:51;15.93;;;8.77;;
63316;SDS011;49822;41.468;13.560;2023-11-21T08:31:28;15.67;;;8.77;;
63316;SDS011;49822;41.468;13.560;2023-11-21T08:33:54;13.77;;;8.07;;
63316;SDS011;49822;41.468;13.560;2023-11-21T08:36:23;17.75;;;8.27;;
63316;SDS011;49822;41.468;13.560;2023-11-21T08:38:51;14.82;;;8.32;;
63316;SDS011;49822;41.468;13.560;2023-11-21T08:41:20;15.00;;;7.38;;
63316;SDS011;49822;41.468;13.560;2023-11-21T08:43:52;18.30;;;8.63;;
63316;SDS011;49822;41.468;13.560;2023-11-21T08:46:20;16.00;;;7.82;;
63316;SDS011;49822;41.468;13.560;2023-11-21T08:48:46;15.95;;;9.07;;
63316;SDS011;49822;41.468;13.560;2023-11-21T08:51:12;20.42;;;12.18;;
63316;SDS011;49822;41.468;13.560;2023-11-21T08:53:40;19.88;;;11.55;;
63316;SDS011;49822;41.468;13.560;2023-11-21T08:56:06;18.77;;;10.38;;
63316;SDS011;49822;41.468;13.560;2023-11-21T08:58:35;14.73;;;8.80;;
63316;SDS011;49822;41.468;13.560;2023-11-21T09:01:02;16.48;;;9.98;;
63316;SDS011;49822;41.468;13.560;2023-11-21T09:03:29;17.85;;;9.73;;
63316;SDS011;49822;41.468;13.560;2023-11-21T09:05:57;17.40;;;10.60;;
63316;SDS011;49822;41.468;13.560;2023-11-21T09:08:23;18.75;;;10.35;;
63316;SDS011;49822;41.468;13.560;2023-11-21T09:10:49;20.73;;;12.60;;
63316;SDS011;49822;41.468;13.560;2023-11-21T09:13:17;23.73;;;12.25;;
63316;SDS011;49822;41.468;13.560;2023-11-21T09:15:44;31.65;;;16.40;;
63316;SDS011;49822;41.468;13.560;2023-11-21T09:18:15;34.13;;;18.55;;
63316;SDS011;49822;41.468;13.560;2023-11-21T09:20:42;24.02;;;10.55;;
63316;SDS011;49822;41.468;13.560;2023-11-21T09:23:09;56.95;;;27.77;;
63316;SDS011;49822;41.468;13.560;2023-11-21T09:25:35;89.90;;;38.47;;
63316;SDS011;49822;41.468;13.560;2023-11-21T09:28:03;40.22;;;20.70;;
63316;SDS011;49822;41.468;13.560;2023-11-21T09:30:34;23.77;;;13.68;;
63316;SDS011;49822;41.468;13.560;2023-11-21T09:33:02;32.22;;;16.02;;
63316;SDS011;49822;41.468;13.560;2023-11-21T09:35:30;53.42;;;23.42;;
63316;SDS011;49822;41.468;13.560;2023-11-21T09:37:56;37.28;;;17.27;;
63316;SDS011;49822;41.468;13.560;2023-11-21T09:40:23;30.90;;;15.35;;
63316;SDS011;49822;41.468;13.560;2023-11-21T09:42:51;20.42;;;11.57;;
63316;SDS011;49822;41.468;13.560;2023-11-21T09:45:25;18.52;;;10.27;;
63316;SDS011;49822;41.468;13.560;2023-11-21T09:47:54;35.90;;;17.73;;
63316;SDS011;49822;41.468;13.560;2023-11-21T09:50:24;20.23;;;9.65;;
63316;SDS011;49822;41.468;13.560;2023-11-21T09:55:31;82.50;;;40.47;;
63316;SDS011;49822;41.468;13.560;2023-11-21T09:58:04;14.52;;;5.38;;
63316;SDS011;49822;41.468;13.560;2023-11-21T10:00:33;10.68;;;4.22;;
63316;SDS011;49822;41.468;13.560;2023-11-21T10:03:00;12.05;;;5.18;;
63316;SDS011;49822;41.468;13.560;2023-11-21T10:05:28;11.77;;;5.10;;
63316;SDS011;49822;41.468;13.560;2023-11-21T10:07:54;12.95;;;5.47;;
63316;SDS011;49822;41.468;13.560;2023-11-21T10:10:25;13.55;;;5.70;;
63316;SDS011;49822;41.468;13.560;2023-11-21T10:12:57;13.07;;;4.60;;
63316;SDS011;49822;41.468;13.560;2023-11-21T10:15:31;10.68;;;4.65;;
63316;SDS011;49822;41.468;13.560;2023-11-21T10:18:01;10.88;;;4.38;;
63316;SDS011;49822;41.468;13.560;2023-11-21T10:20:29;12.52;;;4.70;;
63316;SDS011;49822;41.468;13.560;2023-11-21T10:22:56;10.35;;;4.97;;
63316;SDS011;49822;41.468;13.560;2023-11-21T10:25:23;12.20;;;4.43;;
63316;SDS011;49822;41.468;13.560;2023-11-21T10:27:54;9.68;;;4.13;;
63316;SDS011;49822;41.468;13.560;2023-11-21T10:30:36;6.43;;;3.72;;
63316;SDS011;49822;41.468;13.560;2023-11-21T10:33:07;7.50;;;3.90;;
63316;SDS011;49822;41.468;13.560;2023-11-21T10:35:47;12.38;;;4.40;;
63316;SDS011;49822;41.468;13.560;2023-11-21T10:38:20;10.38;;;3.78;;
63316;SDS011;49822;41.468;13.560;2023-11-21T10:40:48;9.75;;;4.07;;
63316;SDS011;49822;41.468;13.560;2023-11-21T10:43:16;10.77;;;5.03;;
63316;SDS011;49822;41.468;13.560;2023-11-21T10:45:44;17.58;;;4.07;;
63316;SDS011;49822;41.468;13.560;2023-11-21T10:48:14;9.70;;;4.05;;
63316;SDS011;49822;41.468;13.560;2023-11-21T10:50:41;10.43;;;4.68;;
63316;SDS011;49822;41.468;13.560;2023-11-21T10:53:07;11.68;;;4.30;;
63316;SDS011;49822;41.468;13.560;2023-11-21T10:55:34;8.52;;;4.22;;
63316;SDS011;49822;41.468;13.560;2023-11-21T10:58:01;11.55;;;4.65;;
63316;SDS011;49822;41.468;13.560;2023-11-21T11:00:30;14.10;;;4.95;;
63316;SDS011;49822;41.468;13.560;2023-11-21T11:02:57;14.63;;;5.20;;
63316;SDS011;49822;41.468;13.560;2023-11-21T11:05:25;16.15;;;6.10;;
63316;SDS011;49822;41.468;13.560;2023-11-21T11:08:08;11.48;;;4.97;;
63316;SDS011;49822;41.468;13.560;2023-11-21T11:10:37;11.85;;;3.78;;
63316;SDS011;49822;41.468;13.560;2023-11-21T11:13:03;11.95;;;4.53;;
63316;SDS011;49822;41.468;13.560;2023-11-21T11:15:32;13.15;;;4.72;;
63316;SDS011;49822;41.468;13.560;2023-11-21T11:17:58;9.63;;;4.25;;
63316;SDS011;49822;41.468;13.560;2023-11-21T11:20:34;11.45;;;3.60;;
63316;SDS011;49822;41.468;13.560;2023-11-21T11:28:46;7.75;;;3.53;;
63316;SDS011;49822;41.468;13.560;2023-11-21T11:34:43;7.53;;;2.88;;
63316;SDS011;49822;41.468;13.560;2023-11-21T11:37:08;8.02;;;3.30;;
63316;SDS011;49822;41.468;13.560;2023-11-21T11:39:35;6.25;;;2.60;;
63316;SDS011;49822;41.468;13.560;2023-11-21T11:42:04;11.15;;;3.90;;
63316;SDS011;49822;41.468;13.560;2023-11-21T11:47:30;8.13;;;3.28;;
63316;SDS011;49822;41.468;13.560;2023-11-21T11:52:39;9.75;;;3.10;;
63316;SDS011;49822;41.468;13.560;2023-11-21T11:55:14;6.95;;;2.97;;
63316;SDS011;49822;41.468;13.560;2023-11-21T11:57:44;6.68;;;3.45;;
63316;SDS011;49822;41.468;13.560;2023-11-21T12:00:19;9.00;;;3.63;;
63316;SDS011;49822;41.468;13.560;2023-11-21T12:02:51;8.85;;;2.67;;
63316;SDS011;49822;41.468;13.560;2023-11-21T12:05:19;5.18;;;2.72;;
63316;SDS011;49822;41.468;13.560;2023-11-21T12:07:56;7.13;;;3.25;;
63316;SDS011;49822;41.468;13.560;2023-11-21T12:10:27;8.25;;;2.53;;
63316;SDS011;49822;41.468;13.560;2023-11-21T12:13:10;7.60;;;3.17;;
63316;SDS011;49822;41.468;13.560;2023-11-21T12:15:40;7.22;;;1.95;;
63316;SDS011;49822;41.468;13.560;2023-11-21T12:18:12;7.18;;;2.50;;
63316;SDS011;49822;41.468;13.560;2023-11-21T12:20:39;9.82;;;3.05;;
63316;SDS011;49822;41.468;13.560;2023-11-21T12:23:06;6.63;;;2.92;;
63316;SDS011;49822;41.468;13.560;2023-11-21T12:25:34;7.80;;;2.60;;
63316;SDS011;49822;41.468;13.560;2023-11-21T12:28:02;9.52;;;2.92;;
63316;SDS011;49822;41.468;13.560;2023-11-21T12:30:29;8.15;;;3.65;;
63316;SDS011;49822;41.468;13.560;2023-11-21T12:32:58;8.15;;;4.30;;
63316;SDS011;49822;41.468;13.560;2023-11-21T12:35:26;9.40;;;3.33;;
63316;SDS011;49822;41.468;13.560;2023-11-21T12:37:59;28.30;;;10.70;;
63316;SDS011;49822;41.468;13.560;2023-11-21T12:40:28;18.17;;;5.88;;
63316;SDS011;49822;41.468;13.560;2023-11-21T12:42:59;10.60;;;4.05;;
63316;SDS011;49822;41.468;13.560;2023-11-21T12:45:29;14.70;;;4.70;;
63316;SDS011;49822;41.468;13.560;2023-11-21T12:48:04;16.05;;;3.95;;
63316;SDS011;49822;41.468;13.560;2023-11-21T12:50:37;8.57;;;3.20;;
63316;SDS011;49822;41.468;13.560;2023-11-21T12:53:04;10.60;;;3.53;;
63316;SDS011;49822;41.468;13.560;2023-11-21T12:55:35;7.22;;;3.10;;
63316;SDS011;49822;41.468;13.560;2023-11-21T12:58:04;10.48;;;3.30;;
63316;SDS011;49822;41.468;13.560;2023-11-21T13:03:10;13.63;;;3.53;;
63316;SDS011;49822;41.468;13.560;2023-11-21T13:05:41;18.70;;;4.18;;
63316;SDS011;49822;41.468;13.560;2023-11-21T13:08:10;5.65;;;2.72;;
63316;SDS011;49822;41.468;13.560;2023-11-21T13:10:39;13.48;;;3.70;;
63316;SDS011;49822;41.468;13.560;2023-11-21T13:13:09;10.57;;;4.05;;
63316;SDS011;49822;41.468;13.560;2023-11-21T13:15:51;11.40;;;3.00;;
63316;SDS011;49822;41.468;13.560;2023-11-21T13:18:25;9.75;;;2.63;;
63316;SDS011;49822;41.468;13.560;2023-11-21T13:20:53;11.65;;;3.00;;
63316;SDS011;49822;41.468;13.560;2023-11-21T13:23:20;8.57;;;2.13;;
63316;SDS011;49822;41.468;13.560;2023-11-21T13:25:48;9.05;;;3.10;;
63316;SDS011;49822;41.468;13.560;2023-11-21T13:28:20;7.15;;;1.85;;
63316;SDS011;49822;41.468;13.560;2023-11-21T13:30:50;6.57;;;2.28;;
63316;SDS011;49822;41.468;13.560;2023-11-21T13:33:19;9.02;;;1.75;;
63316;SDS011;49822;41.468;13.560;2023-11-21T13:35:48;6.90;;;1.92;;
63316;SDS011;49822;41.468;13.560;2023-11-21T13:38:18;5.38;;;1.90;;
63316;SDS011;49822;41.468;13.560;2023-11-21T13:40:49;6.40;;;2.10;;
63316;SDS011;49822;41.468;13.560;2023-11-21T13:43:22;6.68;;;2.63;;
63316;SDS011;49822;41.468;13.560;2023-11-21T13:45:53;11.73;;;3.38;;
63316;SDS011;49822;41.468;13.560;2023-11-21T13:48:29;10.55;;;2.88;;
63316;SDS011;49822;41.468;13.560;2023-11-21T13:51:06;9.35;;;3.08;;
63316;SDS011;49822;41.468;13.560;2023-11-21T13:53:43;8.55;;;2.90;;
63316;SDS011;49822;41.468;13.560;2023-11-21T13:56:13;8.48;;;2.20;;
63316;SDS011;49822;41.468;13.560;2023-11-21T13:58:47;8.48;;;2.10;;
63316;SDS011;49822;41.468;13.560;2023-11-21T14:01:26;8.75;;;2.08;;
63316;SDS011;49822;41.468;13.560;2023-11-21T14:04:03;8.77;;;2.83;;
63316;SDS011;49822;41.468;13.560;2023-11-21T14:06:43;6.88;;;2.10;;
63316;SDS011;49822;41.468;13.560;2023-11-21T14:09:14;6.40;;;2.30;;
63316;SDS011;49822;41.468;13.560;2023-11-21T14:11:49;10.00;;;2.35;;
63316;SDS011;49822;41.468;13.560;2023-11-21T14:14:23;10.70;;;3.60;;
63316;SDS011;49822;41.468;13.560;2023-11-21T14:16:51;26.30;;;9.05;;
63316;SDS011;49822;41.468;13.560;2023-11-21T14:19:24;27.48;;;10.10;;
63316;SDS011;49822;41.468;13.560;2023-11-21T14:21:57;37.42;;;13.10;;
63316;SDS011;49822;41.468;13.560;2023-11-21T14:24:23;25.23;;;9.98;;
63316;SDS011;49822;41.468;13.560;2023-11-21T14:26:52;18.05;;;7.00;;
63316;SDS011;49822;41.468;13.560;2023-11-21T14:29:18;19.42;;;7.25;;
63316;SDS011;49822;41.468;13.560;2023-11-21T14:31:50;8.05;;;2.90;;
63316;SDS011;49822;41.468;13.560;2023-11-21T14:34:18;10.80;;;2.85;;
63316;SDS011;49822;41.468;13.560;2023-11-21T14:36:46;2.80;;;1.05;;
63316;SDS011;49822;41.468;13.560;2023-11-21T14:39:14;9.10;;;1.60;;
63316;SDS011;49822;41.468;13.560;2023-11-21T14:41:53;6.00;;;1.20;;
63316;SDS011;49822;41.468;13.560;2023-11-21T14:44:25;5.00;;;1.20;;
63316;SDS011;49822;41.468;13.560;2023-11-21T14:46:54;4.50;;;1.10;;